Chemical Pioneer — KAFO — position and weather

sailwx.info

Track history (hours):
 
Tides and Currents Weather Stations Pressure Air Temp Water Temp Dewpoint Dewpoint Depression Visibility Wind Speed Wind Dir Waves Ship Positions

Chemical Pioneer

Owner: US Shipping Corp, Edison, NJ. More information available from US FCC via Universal Licensing System and Coast Guard Vessel Documentation Center.

Last reported at 2016-Dec-09 19:33 UTC. Time now 2016-Dec-11 02:17 UTC.
Position N 25°17' W 080°04'.

Type: Tanker. MMSI: 366032000.

Date/timePositionNaut miles runAvg speedWind from/ knotsBaromVisibWave heightAir tempDewpointWater temp
2016-Dec-09 19:33N 25°17' W 080°04'1515.0
2016-Dec-09 18:33N 25°31' W 080°00'1414.0
2016-Dec-09 17:34N 25°45' W 079°59'1414.4
2016-Dec-09 16:33N 25°60' W 079°59'1514.9
2016-Dec-09 15:33N 26°15' W 079°58'1515.5
2016-Dec-09 14:33N 26°30' W 079°57'1515.4
2016-Dec-09 13:33N 26°45' W 079°56'1616.4
2016-Dec-09 12:33N 27°02' W 079°56'46715.5
2016-Dec-08 06:28N 34°11' W 076°24'1517.0
2016-Dec-08 05:33N 34°22' W 076°11'22715.7
2016-Dec-07 15:07N 37°58' W 074°45'5310.7
2016-Dec-07 10:08N 38°49' W 075°04'711.4
2016-Dec-07 09:33N 38°55' W 075°06'1615.8
2016-Dec-07 08:34N 39°09' W 075°15'1514.9
2016-Dec-07 07:33N 39°21' W 075°26'1413.7
2016-Dec-07 06:33N 39°34' W 075°33'1313.1
2016-Dec-07 05:33N 39°46' W 075°28'1212.5
2016-Dec-07 04:33N 39°52' W 075°13'8 8.0
2016-Dec-07 03:33N 39°58' W 075°07'2 1.4
2016-Dec-07 02:28N 39°59' W 075°05'0 0.0
2016-Dec-07 01:31N 39°59' W 075°05'0 0.0
2016-Dec-07 00:31N 39°59' W 075°05'0 0.0
2016-Dec-06 23:31N 39°59' W 075°05'0 0.0
2016-Dec-06 22:31N 39°59' W 075°05'0 0.0
2016-Dec-06 21:31N 39°59' W 075°05'0 0.0
2016-Dec-06 20:31N 39°59' W 075°05'0 0.0
2016-Dec-06 18:31N 39°59' W 075°05'0 0.0
2016-Dec-06 17:28N 39°59' W 075°05'0 0.0
2016-Dec-06 16:31N 39°59' W 075°05'0 0.0
2016-Dec-06 15:28N 39°59' W 075°05'0 0.0
2016-Dec-06 14:31N 39°59' W 075°05'0 0.0
2016-Dec-06 13:31N 39°59' W 075°05'0 0.0
2016-Dec-06 12:31N 39°59' W 075°05'0 0.0
2016-Dec-06 11:31N 39°59' W 075°05'0 0.0
2016-Dec-06 10:31N 39°59' W 075°05'0 0.0
2016-Dec-06 09:31N 39°59' W 075°05'0 0.0
2016-Dec-06 08:31N 39°59' W 075°05'0 0.0
2016-Dec-06 07:31N 39°59' W 075°05'0 0.0
2016-Dec-06 06:31N 39°59' W 075°05'0 0.0
2016-Dec-06 05:31N 39°59' W 075°05'0 0.0
2016-Dec-06 04:31N 39°59' W 075°05'0 0.0
2016-Dec-06 03:31N 39°59' W 075°05'0 0.0
2016-Dec-06 02:31N 39°59' W 075°05'0 0.0
2016-Dec-06 01:31N 39°59' W 075°05'0 0.0
2016-Dec-06 00:31N 39°59' W 075°05'0 0.0
2016-Dec-05 23:33N 39°59' W 075°05'1 0.5
2016-Dec-05 22:33N 39°59' W 075°06'0 0.0
2016-Dec-05 21:31N 39°59' W 075°06'0 0.0
2016-Dec-05 20:31N 39°59' W 075°06'0 0.0
2016-Dec-05 19:31N 39°59' W 075°06'0 0.0
2016-Dec-05 18:31N 39°59' W 075°06'0 0.0
2016-Dec-05 17:31N 39°59' W 075°06'0 0.0
2016-Dec-05 16:31N 39°59' W 075°06'0 0.0
2016-Dec-05 15:31N 39°59' W 075°06'0 0.0
2016-Dec-05 14:31N 39°59' W 075°06'0 0.0
2016-Dec-05 13:31N 39°59' W 075°06'0 0.0
2016-Dec-05 12:31N 39°59' W 075°06'0 0.0
2016-Dec-05 11:31N 39°59' W 075°06'0 0.0
2016-Dec-05 10:31N 39°59' W 075°06'0 0.0
2016-Dec-05 09:31N 39°59' W 075°06'0 0.0
2016-Dec-05 08:31N 39°59' W 075°06'0 0.0
2016-Dec-05 07:31N 39°59' W 075°06'0 0.0
2016-Dec-05 06:31N 39°59' W 075°06'0 0.0
2016-Dec-05 05:31N 39°59' W 075°06'0 0.0
2016-Dec-05 04:31N 39°59' W 075°06'0 0.0
2016-Dec-05 03:31N 39°59' W 075°06'0 0.0
2016-Dec-05 02:31N 39°59' W 075°06'0 0.0
2016-Dec-05 01:31N 39°59' W 075°06'0 0.0
2016-Dec-05 00:31N 39°59' W 075°06'0 0.0
2016-Dec-04 23:31N 39°59' W 075°06'0 0.0
2016-Dec-04 22:33N 39°59' W 075°06'2 2.2
2016-Dec-04 21:33N 39°57' W 075°08'5 4.6
2016-Dec-04 20:33N 39°53' W 075°10'9 9.4
2016-Dec-04 19:33N 39°50' W 075°22'1515.0
2016-Dec-04 18:33N 39°38' W 075°34'1716.5
2016-Dec-04 17:33N 39°22' W 075°28'1717.5
2016-Dec-04 16:34N 39°08' W 075°14'3210.5
2016-Dec-04 13:27N 38°48' W 074°42'104 7.9
2016-Dec-04 00:18N 40°22' W 073°45'810.1
2016-Dec-03 23:33N 40°25' W 073°54'1110.6
2016-Dec-03 22:33N 40°29' W 074°07'7 7.0
2016-Dec-03 21:33N 40°32' W 074°15'4 3.7
2016-Dec-03 20:33N 40°35' W 074°12'0 0.0
2016-Dec-03 16:05N 40°35' W 074°12'0 0.0
2016-Dec-03 15:26N 40°35' W 074°12'0 0.0
2016-Dec-03 14:32N 40°35' W 074°12'0 0.0
2016-Dec-03 13:23N 40°35' W 074°12'0 0.0
2016-Dec-03 12:20N 40°35' W 074°12'0 0.0
2016-Dec-03 11:26N 40°35' W 074°12'0 0.0
2016-Dec-03 10:20N 40°35' W 074°12'0 0.0
2016-Dec-03 09:32N 40°35' W 074°12'0 0.0
2016-Dec-03 08:26N 40°35' W 074°12'0 0.0
2016-Dec-03 07:32N 40°35' W 074°12'0 0.0
2016-Dec-03 06:26N 40°35' W 074°12'0 0.0
2016-Dec-03 05:20N 40°35' W 074°12'0 0.0
2016-Dec-03 04:32N 40°35' W 074°12'0 0.0
2016-Dec-03 03:08N 40°35' W 074°12'0 0.8
2016-Dec-03 02:33N 40°36' W 074°12'5 4.7
2016-Dec-03 01:33N 40°39' W 074°07'3 2.7
2016-Dec-03 00:33N 40°38' W 074°04'0 0.1
2016-Dec-02 23:33N 40°38' W 074°04'0 0.0
2016-Dec-02 22:33N 40°38' W 074°04'0 0.0
2016-Dec-02 21:33N 40°38' W 074°04'0 0.1
2016-Dec-02 20:33N 40°38' W 074°04'0 0.0
2016-Dec-02 19:33N 40°38' W 074°04'0 0.0
2016-Dec-02 18:33N 40°38' W 074°04'0 0.0
2016-Dec-02 17:33N 40°38' W 074°04'0 0.1
2016-Dec-02 16:33N 40°38' W 074°04'0 0.2
2016-Dec-02 15:33N 40°39' W 074°04'0 0.0
2016-Dec-02 14:33N 40°39' W 074°04'0 0.0
2016-Dec-02 13:33N 40°39' W 074°04'0 0.0
2016-Dec-02 12:33N 40°39' W 074°04'0 0.1
2016-Dec-02 11:33N 40°38' W 074°04'0 0.1
2016-Dec-02 10:33N 40°38' W 074°04'0 0.0
2016-Dec-02 09:33N 40°38' W 074°04'0 0.1
2016-Dec-02 08:33N 40°38' W 074°04'0 0.0
2016-Dec-02 07:30N 40°38' W 074°04'0 0.1
2016-Dec-02 06:33N 40°38' W 074°04'0 0.0
2016-Dec-02 05:33N 40°38' W 074°04'0 0.1
2016-Dec-02 04:33N 40°38' W 074°04'0 0.2
2016-Dec-02 03:33N 40°39' W 074°04'0 0.1
2016-Dec-02 02:33N 40°39' W 074°04'1 1.1
2016-Dec-02 01:31N 40°39' W 074°05'0 0.0
2016-Dec-02 00:31N 40°39' W 074°05'0 0.0
2016-Dec-01 23:31N 40°39' W 074°05'0 0.0
2016-Dec-01 22:31N 40°39' W 074°05'0 0.0
2016-Dec-01 21:28N 40°39' W 074°05'0 0.0
2016-Dec-01 20:31N 40°39' W 074°05'0 0.0
2016-Dec-01 19:25N 40°39' W 074°05'0 0.0
2016-Dec-01 18:31N 40°39' W 074°05'0 0.0
2016-Dec-01 17:19N 40°39' W 074°05'0 0.0
2016-Dec-01 16:31N 40°39' W 074°05'0 0.0
2016-Dec-01 15:31N 40°39' W 074°05'0 0.0
2016-Dec-01 14:31N 40°39' W 074°05'0 0.2
2016-Dec-01 13:31N 40°39' W 074°05'0 0.5
2016-Dec-01 12:31N 40°39' W 074°06'0 0.0
2016-Dec-01 11:31N 40°39' W 074°06'0 0.0
2016-Dec-01 10:25N 40°39' W 074°06'0 0.0
2016-Dec-01 09:31N 40°39' W 074°06'0 0.0
2016-Dec-01 08:31N 40°39' W 074°06'0 0.0
2016-Dec-01 07:31N 40°39' W 074°06'0 0.0
2016-Dec-01 06:31N 40°39' W 074°06'0 0.0
2016-Dec-01 05:31N 40°39' W 074°06'0 0.0
2016-Dec-01 04:31N 40°39' W 074°06'0 0.0
2016-Dec-01 03:31N 40°39' W 074°06'0 0.0
2016-Dec-01 02:31N 40°39' W 074°06'0 0.0
2016-Dec-01 01:31N 40°39' W 074°06'0 0.0
2016-Dec-01 00:31N 40°39' W 074°06'0 0.0
2016-Nov-30 23:28N 40°39' W 074°06'0 0.0
2016-Nov-30 22:31N 40°39' W 074°06'0 0.0
2016-Nov-30 21:31N 40°39' W 074°06'0 0.0
2016-Nov-30 20:31N 40°39' W 074°06'0 0.0
2016-Nov-30 19:31N 40°39' W 074°06'0 0.0
2016-Nov-30 18:31N 40°39' W 074°06'0 0.0
2016-Nov-30 17:31N 40°39' W 074°06'0 0.0
2016-Nov-30 16:31N 40°39' W 074°06'0 0.0
2016-Nov-30 15:28N 40°39' W 074°06'0 0.0
2016-Nov-30 14:31N 40°39' W 074°06'0 0.0
2016-Nov-30 13:31N 40°39' W 074°06'0 0.0
2016-Nov-30 11:33N 40°39' W 074°06'0 0.0
2016-Nov-30 10:33N 40°39' W 074°06'2 2.4
2016-Nov-30 09:33N 40°38' W 074°03'1010.4
2016-Nov-30 08:33N 40°29' W 073°55'9 9.2
2016-Nov-30 07:33N 40°28' W 073°43'10 9.8
2016-Nov-30 06:30N 40°28' W 073°30'  
Track history (hours):
 
Tides and Currents Weather Stations Pressure Air Temp Water Temp Dewpoint Dewpoint Depression Visibility Wind Speed Wind Dir Waves Ship Positions

Chemical Pioneer

Owner: US Shipping Corp, Edison, NJ. More information available from US FCC via Universal Licensing System and Coast Guard Vessel Documentation Center.

Last reported at 2016-Dec-09 19:33 UTC. Time now 2016-Dec-11 02:17 UTC.
Position N 25°17' W 080°04'.

Type: Tanker. MMSI: 366032000.

Date/timePositionNaut miles runAvg speedWind from/ knotsBaromVisibWave heightAir tempDewpointWater temp
2016-Dec-09 19:33N 25°17' W 080°04'1515.0
2016-Dec-09 18:33N 25°31' W 080°00'1414.0
2016-Dec-09 17:34N 25°45' W 079°59'1414.4
2016-Dec-09 16:33N 25°60' W 079°59'1514.9
2016-Dec-09 15:33N 26°15' W 079°58'1515.5
2016-Dec-09 14:33N 26°30' W 079°57'1515.4
2016-Dec-09 13:33N 26°45' W 079°56'1616.4
2016-Dec-09 12:33N 27°02' W 079°56'46715.5
2016-Dec-08 06:28N 34°11' W 076°24'1517.0
2016-Dec-08 05:33N 34°22' W 076°11'22715.7
2016-Dec-07 15:07N 37°58' W 074°45'5310.7
2016-Dec-07 10:08N 38°49' W 075°04'711.4
2016-Dec-07 09:33N 38°55' W 075°06'1615.8
2016-Dec-07 08:34N 39°09' W 075°15'1514.9
2016-Dec-07 07:33N 39°21' W 075°26'1413.7
2016-Dec-07 06:33N 39°34' W 075°33'1313.1
2016-Dec-07 05:33N 39°46' W 075°28'1212.5
2016-Dec-07 04:33N 39°52' W 075°13'8 8.0
2016-Dec-07 03:33N 39°58' W 075°07'2 1.4
2016-Dec-07 02:28N 39°59' W 075°05'0 0.0
2016-Dec-07 01:31N 39°59' W 075°05'0 0.0
2016-Dec-07 00:31N 39°59' W 075°05'0 0.0
2016-Dec-06 23:31N 39°59' W 075°05'0 0.0
2016-Dec-06 22:31N 39°59' W 075°05'0 0.0
2016-Dec-06 21:31N 39°59' W 075°05'0 0.0
2016-Dec-06 20:31N 39°59' W 075°05'0 0.0
2016-Dec-06 18:31N 39°59' W 075°05'0 0.0
2016-Dec-06 17:28N 39°59' W 075°05'0 0.0
2016-Dec-06 16:31N 39°59' W 075°05'0 0.0
2016-Dec-06 15:28N 39°59' W 075°05'0 0.0
2016-Dec-06 14:31N 39°59' W 075°05'0 0.0
2016-Dec-06 13:31N 39°59' W 075°05'0 0.0
2016-Dec-06 12:31N 39°59' W 075°05'0 0.0
2016-Dec-06 11:31N 39°59' W 075°05'0 0.0
2016-Dec-06 10:31N 39°59' W 075°05'0 0.0
2016-Dec-06 09:31N 39°59' W 075°05'0 0.0
2016-Dec-06 08:31N 39°59' W 075°05'0 0.0
2016-Dec-06 07:31N 39°59' W 075°05'0 0.0
2016-Dec-06 06:31N 39°59' W 075°05'0 0.0
2016-Dec-06 05:31N 39°59' W 075°05'0 0.0
2016-Dec-06 04:31N 39°59' W 075°05'0 0.0
2016-Dec-06 03:31N 39°59' W 075°05'0 0.0
2016-Dec-06 02:31N 39°59' W 075°05'0 0.0
2016-Dec-06 01:31N 39°59' W 075°05'0 0.0
2016-Dec-06 00:31N 39°59' W 075°05'0 0.0
2016-Dec-05 23:33N 39°59' W 075°05'1 0.5
2016-Dec-05 22:33N 39°59' W 075°06'0 0.0
2016-Dec-05 21:31N 39°59' W 075°06'0 0.0
2016-Dec-05 20:31N 39°59' W 075°06'0 0.0
2016-Dec-05 19:31N 39°59' W 075°06'0 0.0
2016-Dec-05 18:31N 39°59' W 075°06'0 0.0
2016-Dec-05 17:31N 39°59' W 075°06'0 0.0
2016-Dec-05 16:31N 39°59' W 075°06'0 0.0
2016-Dec-05 15:31N 39°59' W 075°06'0 0.0
2016-Dec-05 14:31N 39°59' W 075°06'0 0.0
2016-Dec-05 13:31N 39°59' W 075°06'0 0.0
2016-Dec-05 12:31N 39°59' W 075°06'0 0.0
2016-Dec-05 11:31N 39°59' W 075°06'0 0.0
2016-Dec-05 10:31N 39°59' W 075°06'0 0.0
2016-Dec-05 09:31N 39°59' W 075°06'0 0.0
2016-Dec-05 08:31N 39°59' W 075°06'0 0.0
2016-Dec-05 07:31N 39°59' W 075°06'0 0.0
2016-Dec-05 06:31N 39°59' W 075°06'0 0.0
2016-Dec-05 05:31N 39°59' W 075°06'0 0.0
2016-Dec-05 04:31N 39°59' W 075°06'0 0.0
2016-Dec-05 03:31N 39°59' W 075°06'0 0.0
2016-Dec-05 02:31N 39°59' W 075°06'0 0.0
2016-Dec-05 01:31N 39°59' W 075°06'0 0.0
2016-Dec-05 00:31N 39°59' W 075°06'0 0.0
2016-Dec-04 23:31N 39°59' W 075°06'0 0.0
2016-Dec-04 22:33N 39°59' W 075°06'2 2.2
2016-Dec-04 21:33N 39°57' W 075°08'5 4.6
2016-Dec-04 20:33N 39°53' W 075°10'9 9.4
2016-Dec-04 19:33N 39°50' W 075°22'1515.0
2016-Dec-04 18:33N 39°38' W 075°34'1716.5
2016-Dec-04 17:33N 39°22' W 075°28'1717.5
2016-Dec-04 16:34N 39°08' W 075°14'3210.5
2016-Dec-04 13:27N 38°48' W 074°42'104 7.9
2016-Dec-04 00:18N 40°22' W 073°45'810.1
2016-Dec-03 23:33N 40°25' W 073°54'1110.6
2016-Dec-03 22:33N 40°29' W 074°07'7 7.0
2016-Dec-03 21:33N 40°32' W 074°15'4 3.7
2016-Dec-03 20:33N 40°35' W 074°12'0 0.0
2016-Dec-03 16:05N 40°35' W 074°12'0 0.0
2016-Dec-03 15:26N 40°35' W 074°12'0 0.0
2016-Dec-03 14:32N 40°35' W 074°12'0 0.0
2016-Dec-03 13:23N 40°35' W 074°12'0 0.0
2016-Dec-03 12:20N 40°35' W 074°12'0 0.0
2016-Dec-03 11:26N 40°35' W 074°12'0 0.0
2016-Dec-03 10:20N 40°35' W 074°12'0 0.0
2016-Dec-03 09:32N 40°35' W 074°12'0 0.0
2016-Dec-03 08:26N 40°35' W 074°12'0 0.0
2016-Dec-03 07:32N 40°35' W 074°12'0 0.0
2016-Dec-03 06:26N 40°35' W 074°12'0 0.0
2016-Dec-03 05:20N 40°35' W 074°12'0 0.0
2016-Dec-03 04:32N 40°35' W 074°12'0 0.0
2016-Dec-03 03:08N 40°35' W 074°12'0 0.8
2016-Dec-03 02:33N 40°36' W 074°12'5 4.7
2016-Dec-03 01:33N 40°39' W 074°07'3 2.7
2016-Dec-03 00:33N 40°38' W 074°04'0 0.1
2016-Dec-02 23:33N 40°38' W 074°04'0 0.0
2016-Dec-02 22:33N 40°38' W 074°04'0 0.0
2016-Dec-02 21:33N 40°38' W 074°04'0 0.1
2016-Dec-02 20:33N 40°38' W 074°04'0 0.0
2016-Dec-02 19:33N 40°38' W 074°04'0 0.0
2016-Dec-02 18:33N 40°38' W 074°04'0 0.0
2016-Dec-02 17:33N 40°38' W 074°04'0 0.1
2016-Dec-02 16:33N 40°38' W 074°04'0 0.2
2016-Dec-02 15:33N 40°39' W 074°04'0 0.0
2016-Dec-02 14:33N 40°39' W 074°04'0 0.0
2016-Dec-02 13:33N 40°39' W 074°04'0 0.0
2016-Dec-02 12:33N 40°39' W 074°04'0 0.1
2016-Dec-02 11:33N 40°38' W 074°04'0 0.1
2016-Dec-02 10:33N 40°38' W 074°04'0 0.0
2016-Dec-02 09:33N 40°38' W 074°04'0 0.1
2016-Dec-02 08:33N 40°38' W 074°04'0 0.0
2016-Dec-02 07:30N 40°38' W 074°04'0 0.1
2016-Dec-02 06:33N 40°38' W 074°04'0 0.0
2016-Dec-02 05:33N 40°38' W 074°04'0 0.1
2016-Dec-02 04:33N 40°38' W 074°04'0 0.2
2016-Dec-02 03:33N 40°39' W 074°04'0 0.1
2016-Dec-02 02:33N 40°39' W 074°04'1 1.1
2016-Dec-02 01:31N 40°39' W 074°05'0 0.0
2016-Dec-02 00:31N 40°39' W 074°05'0 0.0
2016-Dec-01 23:31N 40°39' W 074°05'0 0.0
2016-Dec-01 22:31N 40°39' W 074°05'0 0.0
2016-Dec-01 21:28N 40°39' W 074°05'0 0.0
2016-Dec-01 20:31N 40°39' W 074°05'0 0.0
2016-Dec-01 19:25N 40°39' W 074°05'0 0.0
2016-Dec-01 18:31N 40°39' W 074°05'0 0.0
2016-Dec-01 17:19N 40°39' W 074°05'0 0.0
2016-Dec-01 16:31N 40°39' W 074°05'0 0.0
2016-Dec-01 15:31N 40°39' W 074°05'0 0.0
2016-Dec-01 14:31N 40°39' W 074°05'0 0.2
2016-Dec-01 13:31N 40°39' W 074°05'0 0.5
2016-Dec-01 12:31N 40°39' W 074°06'0 0.0
2016-Dec-01 11:31N 40°39' W 074°06'0 0.0
2016-Dec-01 10:25N 40°39' W 074°06'0 0.0
2016-Dec-01 09:31N 40°39' W 074°06'0 0.0
2016-Dec-01 08:31N 40°39' W 074°06'0 0.0
2016-Dec-01 07:31N 40°39' W 074°06'0 0.0
2016-Dec-01 06:31N 40°39' W 074°06'0 0.0
2016-Dec-01 05:31N 40°39' W 074°06'0 0.0
2016-Dec-01 04:31N 40°39' W 074°06'0 0.0
2016-Dec-01 03:31N 40°39' W 074°06'0 0.0
2016-Dec-01 02:31N 40°39' W 074°06'0 0.0
2016-Dec-01 01:31N 40°39' W 074°06'0 0.0
2016-Dec-01 00:31N 40°39' W 074°06'0 0.0
2016-Nov-30 23:28N 40°39' W 074°06'0 0.0
2016-Nov-30 22:31N 40°39' W 074°06'0 0.0
2016-Nov-30 21:31N 40°39' W 074°06'0 0.0
2016-Nov-30 20:31N 40°39' W 074°06'0 0.0
2016-Nov-30 19:31N 40°39' W 074°06'0 0.0
2016-Nov-30 18:31N 40°39' W 074°06'0 0.0
2016-Nov-30 17:31N 40°39' W 074°06'0 0.0
2016-Nov-30 16:31N 40°39' W 074°06'0 0.0
2016-Nov-30 15:28N 40°39' W 074°06'0 0.0
2016-Nov-30 14:31N 40°39' W 074°06'0 0.0
2016-Nov-30 13:31N 40°39' W 074°06'0 0.0
2016-Nov-30 11:33N 40°39' W 074°06'0 0.0
2016-Nov-30 10:33N 40°39' W 074°06'2 2.4
2016-Nov-30 09:33N 40°38' W 074°03'1010.4
2016-Nov-30 08:33N 40°29' W 073°55'9 9.2
2016-Nov-30 07:33N 40°28' W 073°43'10 9.8
2016-Nov-30 06:30N 40°28' W 073°30'  

Dump ship's entire track history